createdAt,value
2019-01-15T00:00:28.314Z,96426.55
2019-01-15T00:02:56.748Z,96412.58
2019-01-15T00:05:25.213Z,96414.42
2019-01-15T00:07:53.614Z,96430.83
2019-01-15T00:10:22.026Z,96432.06
2019-01-15T00:12:50.429Z,96436.80
2019-01-15T00:15:18.887Z,96433.47
2019-01-15T00:17:47.766Z,96434.98
2019-01-15T00:20:17.108Z,96437.70
2019-01-15T00:22:45.490Z,96436.29
2019-01-15T00:25:14.691Z,96434.41
2019-01-15T00:27:43.083Z,96450.15
2019-01-15T00:30:14.920Z,96460.34
2019-01-15T00:32:43.366Z,96465.08
2019-01-15T00:35:11.824Z,96463.77
2019-01-15T00:37:40.232Z,96467.78
2019-01-15T00:40:11.649Z,96467.84
2019-01-15T00:42:40.142Z,96468.05
2019-01-15T00:45:11.368Z,96471.56
2019-01-15T00:47:39.980Z,96473.59
2019-01-15T00:50:11.301Z,96477.64
2019-01-15T00:52:39.687Z,96482.28
2019-01-15T00:55:10.037Z,96488.89
2019-01-15T00:57:38.697Z,96497.67
2019-01-15T01:00:12.912Z,96498.02
2019-01-15T01:02:41.508Z,96495.59
2019-01-15T01:05:10.411Z,96503.80
2019-01-15T01:07:38.802Z,96496.70
2019-01-15T01:10:10.450Z,96502.29
2019-01-15T01:12:38.916Z,96499.55
2019-01-15T01:15:10.547Z,96500.65
2019-01-15T01:17:39.660Z,96498.87
2019-01-15T01:20:10.831Z,96513.00
2019-01-15T01:22:39.664Z,96514.65
2019-01-15T01:25:11.134Z,96516.68
2019-01-15T01:27:39.525Z,96518.84
2019-01-15T01:30:16.924Z,96521.31
2019-01-15T01:32:45.314Z,96516.95
2019-01-15T01:35:13.774Z,96522.27
2019-01-15T01:37:42.333Z,96514.93
2019-01-15T01:40:13.468Z,96511.46
2019-01-15T01:42:41.924Z,96516.81
2019-01-15T01:45:12.417Z,96522.95
2019-01-15T01:47:40.866Z,96518.56
2019-01-15T01:50:11.602Z,96520.59
2019-01-15T01:52:40.268Z,96525.70
2019-01-15T01:55:11.004Z,96520.59
2019-01-15T01:57:39.458Z,96522.85
2019-01-15T02:00:11.158Z,96521.06
2019-01-15T02:02:39.540Z,96523.67
2019-01-15T02:05:08.173Z,96523.20
2019-01-15T02:07:36.588Z,96528.06
2019-01-15T02:10:07.866Z,96524.50
2019-01-15T02:12:36.958Z,96525.94
2019-01-15T02:15:08.584Z,96520.00
2019-01-15T02:17:36.978Z,96522.23
2019-01-15T02:20:08.610Z,96520.10
2019-01-15T02:22:37.126Z,96517.12
2019-01-15T02:25:07.650Z,96522.71
2019-01-15T02:27:37.749Z,96524.36
2019-01-15T02:30:34.430Z,96524.02
2019-01-15T02:33:03.090Z,96532.04
2019-01-15T02:35:31.484Z,96522.05
2019-01-15T02:37:59.923Z,96524.66
2019-01-15T02:40:28.313Z,96522.97
2019-01-15T02:42:56.698Z,96522.14
2019-01-15T02:45:25.312Z,96530.06
2019-01-15T02:47:53.773Z,96525.43
2019-01-15T02:50:22.309Z,96525.81
2019-01-15T02:52:50.743Z,96528.19
2019-01-15T02:55:19.187Z,96525.00
2019-01-15T02:57:47.580Z,96533.67
2019-01-15T03:00:23.980Z,96537.94
2019-01-15T03:02:52.716Z,96530.97
2019-01-15T03:05:21.305Z,96533.44
2019-01-15T03:07:49.928Z,96544.00
2019-01-15T03:10:20.623Z,96538.03
2019-01-15T03:12:55.395Z,96535.08
2019-01-15T03:15:21.403Z,96538.03
2019-01-15T03:17:49.974Z,96554.53
2019-01-15T03:20:18.498Z,96550.97
2019-01-15T03:22:47.141Z,96555.73
2019-01-15T03:25:15.973Z,96566.89
2019-01-15T03:27:44.707Z,96556.91
2019-01-15T03:30:18.855Z,96558.59
2019-01-15T03:32:47.321Z,96548.06
2019-01-15T03:35:15.711Z,96554.20
2019-01-15T03:37:44.119Z,96551.25
2019-01-15T03:40:16.165Z,96563.33
2019-01-15T03:42:44.552Z,96568.06
2019-01-15T03:45:13.242Z,96576.74
2019-01-15T03:47:41.638Z,96572.15
2019-01-15T03:50:10.665Z,96580.32
2019-01-15T03:52:39.087Z,96586.02
2019-01-15T03:55:10.179Z,96585.05
2019-01-15T03:57:38.645Z,96585.91
2019-01-15T04:00:15.670Z,96595.48
2019-01-15T04:02:44.415Z,96598.72
2019-01-15T04:10:41.891Z,96621.84
2019-01-15T04:15:44.250Z,96623.09
2019-01-15T04:18:12.641Z,96628.31
2019-01-15T04:23:15.357Z,96630.82
2019-01-15T04:28:17.439Z,96641.06
2019-01-15T04:30:45.852Z,96635.98
2019-01-15T04:33:14.252Z,96639.03
2019-01-15T04:35:42.641Z,96639.77
2019-01-15T04:38:11.147Z,96650.24
2019-01-15T04:40:39.530Z,96651.20
2019-01-15T04:43:07.922Z,96651.68
2019-01-15T04:48:10.323Z,96650.77
2019-01-15T04:50:58.123Z,96655.06
2019-01-15T04:53:26.519Z,96656.61
2019-01-15T04:55:54.917Z,96652.41
2019-01-15T05:00:57.214Z,96656.34
2019-01-15T05:03:44.824Z,96657.92
2019-01-15T05:06:53.144Z,96649.52
2019-01-15T05:09:21.587Z,96647.84
2019-01-15T05:11:50.036Z,96658.75
2019-01-15T05:14:18.425Z,96659.23
2019-01-15T05:16:46.863Z,96664.54
2019-01-15T05:19:15.253Z,96664.92
2019-01-15T05:21:43.745Z,96669.66
2019-01-15T05:26:46.351Z,96666.38
2019-01-15T05:29:14.771Z,96673.14
2019-01-15T05:31:43.240Z,96674.34
2019-01-15T05:34:11.632Z,96673.39
2019-01-15T05:36:40.042Z,96682.90
2019-01-15T05:39:48.351Z,96682.33
2019-01-15T05:50:48.518Z,96696.30
2019-01-15T05:53:16.917Z,96689.19
2019-01-15T05:55:45.373Z,96693.20
2019-01-15T06:00:47.986Z,96697.12
2019-01-15T06:03:35.731Z,96697.84
2019-01-15T06:06:44.086Z,96700.73
2019-01-15T06:12:06.246Z,96711.02
2019-01-15T06:17:08.662Z,96707.01
2019-01-15T06:19:56.275Z,96714.55
2019-01-15T06:22:24.666Z,96720.00
2019-01-15T06:24:53.062Z,96717.39
2019-01-15T06:27:21.478Z,96716.33
2019-01-15T06:29:49.872Z,96706.00
2019-01-15T06:32:18.277Z,96709.66
2019-01-15T06:35:06.104Z,96706.65
2019-01-15T06:37:34.501Z,96709.55
2019-01-15T06:40:22.154Z,96710.13
2019-01-15T06:42:50.563Z,96714.99
2019-01-15T06:45:38.321Z,96721.95
2019-01-15T06:48:46.641Z,96723.39
2019-01-15T06:51:15.042Z,96716.81
2019-01-15T06:53:43.439Z,96723.67
2019-01-15T06:56:11.831Z,96727.49
2019-01-15T07:01:14.208Z,96731.66
2019-01-15T07:03:42.672Z,96734.36
2019-01-15T07:06:30.338Z,96736.14
2019-01-15T07:08:58.726Z,96753.47
2019-01-15T07:11:27.123Z,96752.99
2019-01-15T07:13:57.168Z,96761.07
2019-01-15T07:19:14.760Z,96755.86
2019-01-15T07:24:32.239Z,96780.53
2019-01-15T07:27:00.631Z,96782.22
2019-01-15T07:30:08.971Z,96784.25
2019-01-15T07:32:37.361Z,96793.25
2019-01-15T07:35:45.709Z,96791.85
2019-01-15T07:38:14.093Z,96801.72
2019-01-15T07:40:42.495Z,96805.18
2019-01-15T07:45:44.918Z,96804.23
2019-01-15T07:48:13.380Z,96804.96
2019-01-15T07:50:41.796Z,96800.13
2019-01-15T07:53:10.274Z,96802.06
2019-01-15T07:55:38.663Z,96781.45
2019-01-15T07:58:07.238Z,96783.10
2019-01-15T08:00:35.626Z,96778.61
2019-01-15T08:08:33.826Z,96793.66
2019-01-15T08:13:36.679Z,96800.08
2019-01-15T08:16:45.020Z,96811.82
2019-01-15T08:19:13.420Z,96814.81
2019-01-15T08:21:41.805Z,96814.59
2019-01-15T08:26:44.204Z,96803.63
2019-01-15T08:29:12.662Z,96803.88
2019-01-15T08:31:41.084Z,96812.15
2019-01-15T08:34:09.471Z,96802.06
2019-01-15T08:36:37.869Z,96806.36
2019-01-15T08:42:25.627Z,96803.22
2019-01-15T08:50:38.101Z,96795.44
2019-01-15T08:53:06.486Z,96793.08
2019-01-15T08:55:35.034Z,96795.94
2019-01-15T08:58:03.607Z,96788.48
2019-01-15T09:00:32.002Z,96795.39
2019-01-15T09:03:00.389Z,96789.20
2019-01-15T09:05:28.832Z,96791.24
2019-01-15T09:07:57.222Z,96790.77
2019-01-15T09:10:25.607Z,96794.23
2019-01-15T09:15:27.862Z,96796.31
2019-01-15T09:17:56.259Z,96794.88
2019-01-15T09:20:24.754Z,96786.45
2019-01-15T09:22:53.147Z,96791.13
2019-01-15T09:25:21.545Z,96792.20
2019-01-15T09:27:50.023Z,96792.93
2019-01-15T09:30:58.337Z,96791.42
2019-01-15T09:33:26.845Z,96799.98
2019-01-15T09:35:55.313Z,96793.35
2019-01-15T09:38:23.712Z,96793.94
2019-01-15T09:40:52.209Z,96793.02
2019-01-15T09:43:20.635Z,96796.73
2019-01-15T09:45:49.025Z,96795.56
2019-01-15T09:53:26.551Z,96795.06
2019-01-15T09:55:54.939Z,96795.98
2019-01-15T10:00:57.421Z,96783.68
2019-01-15T10:06:00.078Z,96773.73
2019-01-15T10:11:02.080Z,96770.78
2019-01-15T10:13:30.494Z,96768.41
2019-01-15T10:15:59.021Z,96773.53
2019-01-15T10:18:27.427Z,96773.77
2019-01-15T10:20:55.820Z,96765.58
2019-01-15T10:24:04.379Z,96764.52
2019-01-15T10:26:32.775Z,96762.17
2019-01-15T10:29:01.173Z,96758.73
2019-01-15T10:32:08.287Z,96758.03
2019-01-15T10:35:16.607Z,96760.06
2019-01-15T10:40:18.748Z,96759.37
2019-01-15T10:45:21.577Z,96750.02
2019-01-15T10:50:24.459Z,96737.09
2019-01-15T10:52:52.890Z,96733.53
2019-01-15T10:55:21.287Z,96732.00
2019-01-15T10:57:49.681Z,96726.18
2019-01-15T11:03:12.267Z,96727.50
2019-01-15T11:05:59.859Z,96721.78
2019-01-15T11:11:02.295Z,96712.16
2019-01-15T11:13:30.725Z,96711.56
2019-01-15T11:15:59.116Z,96706.56
2019-01-15T11:18:27.517Z,96706.11
2019-01-15T11:20:55.928Z,96701.22
2019-01-15T11:23:24.325Z,96700.62
2019-01-15T11:25:52.729Z,96701.22
2019-01-15T11:28:21.186Z,96698.38
2019-01-15T11:30:49.595Z,96695.17
2019-01-15T11:33:17.987Z,96701.83
2019-01-15T11:38:20.245Z,96694.69
2019-01-15T11:43:23.002Z,96687.78
2019-01-15T11:48:24.961Z,96675.28
2019-01-15T11:50:53.353Z,96673.04
2019-01-15T11:53:21.761Z,96665.19
2019-01-15T11:55:50.161Z,96665.89
2019-01-15T11:58:18.555Z,96664.92
2019-01-15T12:01:07.654Z,96651.12
2019-01-15T12:06:44.528Z,96639.11
2019-01-15T12:09:32.189Z,96633.51
2019-01-15T12:12:19.729Z,96640.05
2019-01-15T12:15:11.047Z,96627.67
2019-01-15T12:17:56.610Z,96631.37
2019-01-15T12:28:50.669Z,96627.77
2019-01-15T12:31:38.192Z,96625.75
2019-01-15T12:34:25.766Z,96620.39
2019-01-15T12:37:13.290Z,96616.09
2019-01-15T12:40:00.926Z,96609.21
2019-01-15T12:42:48.470Z,96601.36
2019-01-15T12:45:56.871Z,96596.59
2019-01-15T12:48:44.401Z,96593.98
2019-01-15T12:51:32.260Z,96596.11
2019-01-15T12:54:19.778Z,96586.57
2019-01-15T12:57:07.321Z,96587.42
2019-01-15T12:59:55.004Z,96580.88
2019-01-15T13:05:17.827Z,96580.63
2019-01-15T13:08:24.601Z,96579.31
2019-01-15T13:13:51.190Z,96574.44
2019-01-15T13:16:38.713Z,96578.47
2019-01-15T13:19:47.056Z,96573.45
2019-01-15T13:22:34.579Z,96575.34
2019-01-15T13:25:22.203Z,96574.74
2019-01-15T13:28:09.726Z,96577.58
2019-01-15T13:30:57.452Z,96578.06
2019-01-15T13:36:34.070Z,96581.39
2019-01-15T13:42:10.690Z,96585.42
2019-01-15T13:44:58.210Z,96581.73
2019-01-15T13:47:45.798Z,96584.34
2019-01-15T13:50:33.460Z,96589.39
2019-01-15T13:53:21.010Z,96592.09
2019-01-15T13:56:08.635Z,96589.44
2019-01-15T13:58:56.256Z,96593.49
2019-01-15T14:01:43.768Z,96597.91
2019-01-15T14:04:31.375Z,96595.53
2019-01-15T14:07:18.894Z,96599.75
2019-01-15T14:10:06.480Z,96585.75
2019-01-15T14:12:53.998Z,96593.02
2019-01-15T14:15:41.570Z,96588.63
2019-01-15T14:18:29.087Z,96591.03
2019-01-15T14:21:24.039Z,96593.06
2019-01-15T14:24:11.555Z,96589.86
2019-01-15T14:26:59.106Z,96582.84
2019-01-15T14:32:35.854Z,96590.00
2019-01-15T14:35:44.178Z,96593.22
2019-01-15T14:38:31.818Z,96590.15
2019-01-15T14:41:19.334Z,96585.03
2019-01-15T14:44:06.886Z,96592.17
2019-01-15T14:46:54.406Z,96595.03
2019-01-15T14:49:41.954Z,96583.62
2019-01-15T14:52:29.556Z,96587.45
2019-01-15T14:55:17.084Z,96593.63
2019-01-15T15:03:51.468Z,96592.21
2019-01-15T15:06:38.991Z,96586.27
2019-01-15T15:09:47.406Z,96589.48
2019-01-15T15:12:34.927Z,96597.12
2019-01-15T15:18:17.429Z,96592.93
2019-01-15T15:21:04.950Z,96594.73
2019-01-15T15:23:52.545Z,96597.34
2019-01-15T15:26:40.070Z,96597.01
2019-01-15T15:32:03.067Z,96598.88
2019-01-15T15:34:50.590Z,96596.41
2019-01-15T15:37:38.189Z,96597.83
2019-01-15T15:45:50.414Z,96611.30
2019-01-15T15:48:37.935Z,96611.30
2019-01-15T15:51:46.615Z,96608.31
2019-01-15T15:54:34.128Z,96625.69
2019-01-15T15:57:41.013Z,96617.09
2019-01-15T16:00:47.876Z,96622.33
2019-01-15T16:03:35.787Z,96633.17
2019-01-15T16:09:31.393Z,96625.92
2019-01-15T16:12:18.913Z,96631.75
2019-01-15T16:17:42.211Z,96628.05
2019-01-15T16:25:58.566Z,96631.75
2019-01-15T16:28:46.525Z,96639.00
2019-01-15T16:31:34.249Z,96634.85
2019-01-15T16:34:21.767Z,96634.37
2019-01-15T16:39:45.061Z,96636.27
2019-01-15T16:42:32.800Z,96637.09
2019-01-15T16:45:20.406Z,96637.09
2019-01-15T16:48:07.938Z,96633.28
2019-01-15T16:50:55.568Z,96633.77
2019-01-15T16:53:43.094Z,96631.52
2019-01-15T16:56:30.726Z,96630.07
2019-01-15T17:04:43.106Z,96631.16
2019-01-15T17:07:30.625Z,96629.36
2019-01-15T17:10:18.179Z,96627.48
2019-01-15T17:13:05.695Z,96630.33
2019-01-15T17:21:08.070Z,96624.97
2019-01-15T17:23:55.610Z,96635.78
2019-01-15T17:26:43.139Z,96627.11
2019-01-15T17:29:31.047Z,96620.67
2019-01-15T17:34:54.105Z,96614.98
2019-01-15T17:43:09.627Z,96619.51
2019-01-15T17:48:46.713Z,96610.35
2019-01-15T17:54:23.391Z,96611.52
2019-01-15T17:57:10.919Z,96612.00
2019-01-15T17:59:58.615Z,96617.94
2019-01-15T18:02:46.139Z,96611.06
2019-01-15T18:05:54.563Z,96616.89
2019-01-15T18:14:06.870Z,96623.44
2019-01-15T18:16:54.399Z,96620.44
2019-01-15T18:22:20.923Z,96628.66
2019-01-15T18:25:08.447Z,96640.44
2019-01-15T18:27:56.045Z,96635.55
2019-01-15T18:30:43.637Z,96642.09
2019-01-15T18:33:31.394Z,96639.58
2019-01-15T18:39:08.119Z,96629.83
2019-01-15T18:42:14.868Z,96631.87
2019-01-15T18:45:02.737Z,96628.17
2019-01-15T18:47:50.255Z,96631.02
2019-01-15T18:50:37.876Z,96631.50
2019-01-15T19:01:47.938Z,96639.13
2019-01-15T19:04:35.455Z,96643.88
2019-01-15T19:07:23.019Z,96642.09
2019-01-15T19:10:10.562Z,96646.50
2019-01-15T19:15:37.005Z,96632.70
2019-01-15T19:21:14.009Z,96629.25
2019-01-15T19:26:50.791Z,96630.67
2019-01-15T19:32:27.397Z,96641.62
2019-01-15T19:35:14.919Z,96634.59
2019-01-15T19:38:02.605Z,96636.24
2019-01-15T19:40:50.129Z,96629.48
2019-01-15T19:43:37.756Z,96623.66
2019-01-15T19:46:25.316Z,96618.80
2019-01-15T19:49:13.199Z,96630.56
2019-01-15T19:52:00.716Z,96636.14
2019-01-15T19:54:48.368Z,96633.52
2019-01-15T20:00:46.128Z,96636.52
2019-01-15T20:06:22.904Z,96632.34
2019-01-15T20:11:59.544Z,96628.52
2019-01-15T20:20:15.133Z,96632.82
2019-01-15T20:23:02.691Z,96637.45
2019-01-15T20:31:08.278Z,96635.80
2019-01-15T20:33:55.803Z,96636.03
2019-01-15T20:36:43.756Z,96630.91
2019-01-15T20:39:31.295Z,96645.08
2019-01-15T20:42:18.849Z,96639.84
2019-01-15T20:45:06.374Z,96638.54
2019-01-15T20:50:50.746Z,96631.25
2019-01-15T20:56:27.428Z,96630.42
2019-01-15T21:02:04.427Z,96635.53
2019-01-15T21:10:38.859Z,96633.63
2019-01-15T21:16:15.599Z,96644.58
2019-01-15T21:21:52.254Z,96646.25
2019-01-15T21:24:39.955Z,96649.32
2019-01-15T21:30:03.375Z,96645.66
2019-01-15T21:32:50.899Z,96647.30
2019-01-15T21:35:38.758Z,96642.06
2019-01-15T21:38:26.291Z,96639.81
2019-01-15T21:41:13.842Z,96642.64
2019-01-15T21:49:26.108Z,96647.34
2019-01-15T21:52:13.627Z,96642.78
2019-01-15T21:55:01.251Z,96644.34
2019-01-15T21:57:48.755Z,96646.95
2019-01-15T22:03:11.745Z,96639.66
2019-01-15T22:05:59.277Z,96640.11
2019-01-15T22:11:22.413Z,96630.22
2019-01-15T22:16:59.117Z,96626.38
2019-01-15T22:19:46.642Z,96623.53
2019-01-15T22:22:34.379Z,96629.93
2019-01-15T22:33:29.028Z,96616.09
2019-01-15T22:36:16.554Z,96612.76
2019-01-15T22:41:39.766Z,96611.56
2019-01-15T22:44:27.295Z,96614.27
2019-01-15T22:47:14.842Z,96608.81
2019-01-15T22:50:02.371Z,96610.56
2019-01-15T22:55:46.171Z,96606.89
2019-01-15T22:58:33.733Z,96604.14
2019-01-15T23:01:42.078Z,96597.82
2019-01-15T23:04:50.398Z,96599.47
2019-01-15T23:07:42.749Z,96595.18
2019-01-15T23:10:12.855Z,96596.83
2019-01-15T23:12:52.066Z,96589.78
2019-01-15T23:15:37.469Z,96584.43
2019-01-15T23:18:10.418Z,96588.92
2019-01-15T23:24:02.049Z,96585.97
2019-01-15T23:26:50.280Z,96584.88
2019-01-15T23:29:38.296Z,96585.08
2019-01-15T23:32:24.486Z,96595.95
2019-01-15T23:34:57.584Z,96585.38
2019-01-15T23:37:45.650Z,96591.75
2019-01-15T23:40:18.710Z,96590.65
2019-01-15T23:43:00.560Z,96585.67
2019-01-15T23:48:40.325Z,96583.36
2019-01-15T23:51:16.675Z,96584.22
2019-01-15T23:54:01.656Z,96582.92
2019-01-15T23:56:34.425Z,96571.86
2019-01-15T23:59:04.469Z,96572.54
